Time;durP1;ratioP1;P1;durP2;ratioP2;P2;SDS_P1;SDS_P2;PMS_P1;PMS_P2;Temp;Humidity;BMP_temperature;BMP_pressure;BME280_temperature;BME280_humidity;BME280_pressure;Samples;Min_cycle;Max_cycle;Signal;HPM_P1;HPM_P2
2022/07/14 00:00:16;;;;;;;10.40;2.05;;;;;;;;;;5070612;28;20047;-65
2022/07/14 00:02:42;;;;;;;6.72;1.50;;;;;;;;;;5058253;28;20048;-66
2022/07/14 00:05:08;;;;;;;5.30;1.27;;;;;;;;;;5064354;28;20078;-66
2022/07/14 00:07:34;;;;;;;6.75;1.73;;;;;;;;;;5072421;28;20089;-66
2022/07/14 00:10:00;;;;;;;7.32;2.30;;;;;;;;;;5072309;28;20036;-66
2022/07/14 00:12:26;;;;;;;10.25;2.83;;;;;;;;;;5062406;28;20043;-65
2022/07/14 00:14:52;;;;;;;9.48;2.80;;;;;;;;;;5065342;28;20089;-66
2022/07/14 00:17:18;;;;;;;6.38;2.10;;;;;;;;;;5070277;28;20141;-66
2022/07/14 00:19:44;;;;;;;8.13;1.85;;;;;;;;;;5066348;28;20463;-65
2022/07/14 00:22:10;;;;;;;10.10;2.65;;;;;;;;;;5063089;28;20143;-66
2022/07/14 00:24:36;;;;;;;8.05;2.28;;;;;;;;;;5064624;28;20035;-66
2022/07/14 00:27:02;;;;;;;10.50;2.42;;;;;;;;;;5067602;28;20039;-66
2022/07/14 00:29:29;;;;;;;10.25;2.10;;;;;;;;;;5067170;28;20043;-66
2022/07/14 00:31:55;;;;;;;10.73;2.92;;;;;;;;;;5058184;28;20044;-65
2022/07/14 00:34:21;;;;;;;8.65;2.38;;;;;;;;;;5061534;28;20041;-65
2022/07/14 00:36:47;;;;;;;10.50;2.60;;;;;;;;;;5052775;28;20039;-66
2022/07/14 00:39:13;;;;;;;11.52;2.83;;;;;;;;;;5068956;28;20040;-66
2022/07/14 00:41:39;;;;;;;6.90;2.45;;;;;;;;;;5066903;28;20036;-66
2022/07/14 00:44:05;;;;;;;10.02;2.33;;;;;;;;;;5063997;28;20032;-66
2022/07/14 00:46:31;;;;;;;6.25;2.00;;;;;;;;;;5055959;28;20064;-66
2022/07/14 00:48:57;;;;;;;8.05;2.72;;;;;;;;;;5066571;28;20032;-66
2022/07/14 00:51:23;;;;;;;3.38;1.55;;;;;;;;;;5065286;28;21568;-66
2022/07/14 00:53:57;;;;;;;7.13;2.05;;;;;;;;;;5061650;28;20041;-66
2022/07/14 00:56:23;;;;;;;7.43;2.17;;;;;;;;;;5058173;28;20048;-66
2022/07/14 00:58:49;;;;;;;7.18;2.30;;;;;;;;;;5068791;28;20517;-66
2022/07/14 01:01:15;;;;;;;8.57;2.30;;;;;;;;;;5070669;28;20147;-66
2022/07/14 01:03:41;;;;;;;7.35;2.30;;;;;;;;;;5070605;28;20049;-66
2022/07/14 01:06:07;;;;;;;3.45;1.38;;;;;;;;;;5067163;28;20036;-66
2022/07/14 01:08:33;;;;;;;8.07;1.90;;;;;;;;;;5068520;28;20044;-65
2022/07/14 01:10:59;;;;;;;5.90;1.77;;;;;;;;;;5062127;28;20048;-66
2022/07/14 01:13:25;;;;;;;5.35;1.90;;;;;;;;;;5059192;28;20052;-66
2022/07/14 01:15:51;;;;;;;4.80;1.95;;;;;;;;;;5070478;28;20383;-66
2022/07/14 01:18:17;;;;;;;5.80;2.00;;;;;;;;;;5057012;28;20055;-65
2022/07/14 01:20:43;;;;;;;9.98;2.38;;;;;;;;;;5060673;28;20028;-66
2022/07/14 01:23:09;;;;;;;9.25;2.20;;;;;;;;;;5063225;28;20032;-66
2022/07/14 01:25:35;;;;;;;6.43;2.40;;;;;;;;;;5066544;28;20605;-66
2022/07/14 01:28:01;;;;;;;8.48;2.47;;;;;;;;;;5060711;28;20510;-66
2022/07/14 01:30:28;;;;;;;10.40;2.40;;;;;;;;;;5062098;28;20056;-66
2022/07/14 01:32:54;;;;;;;8.20;2.30;;;;;;;;;;5065870;28;20033;-66
2022/07/14 01:35:21;;;;;;;10.13;2.33;;;;;;;;;;5063195;28;20068;-65
2022/07/14 01:37:48;;;;;;;9.95;2.72;;;;;;;;;;5064805;28;20071;-66
2022/07/14 01:40:14;;;;;;;4.40;2.08;;;;;;;;;;5059798;28;20043;-66
2022/07/14 01:42:41;;;;;;;7.68;2.22;;;;;;;;;;5068124;28;20036;-66
2022/07/14 01:45:07;;;;;;;8.15;2.28;;;;;;;;;;5065881;28;20036;-66
2022/07/14 01:47:33;;;;;;;11.45;2.35;;;;;;;;;;5060836;28;20041;-66
2022/07/14 01:49:59;;;;;;;8.60;2.50;;;;;;;;;;5062389;28;20029;-65
2022/07/14 01:52:25;;;;;;;7.78;2.40;;;;;;;;;;5061026;28;20127;-66
2022/07/14 01:54:51;;;;;;;7.95;2.35;;;;;;;;;;5058176;28;20045;-66
2022/07/14 01:57:18;;;;;;;10.98;3.10;;;;;;;;;;5069125;28;20040;-66
2022/07/14 01:59:44;;;;;;;8.02;2.47;;;;;;;;;;5064676;28;20041;-66
2022/07/14 02:02:10;;;;;;;7.97;2.25;;;;;;;;;;5062017;28;20043;-66
2022/07/14 02:04:36;;;;;;;9.02;2.67;;;;;;;;;;5065713;28;20029;-65
2022/07/14 02:07:02;;;;;;;10.60;2.75;;;;;;;;;;5059302;28;20541;-66
2022/07/14 02:12:10;;;;;;;7.60;2.17;;;;;;;;;;5057881;28;20079;-66
2022/07/14 02:12:14;;;;;;;7.90;3.00;;;;;;;;;;5059393;28;20043;-66
2022/07/14 02:14:41;;;;;;;7.32;2.25;;;;;;;;;;5063230;28;20043;-65
2022/07/14 02:17:07;;;;;;;8.20;2.38;;;;;;;;;;5062401;28;20032;-65
2022/07/14 02:19:33;;;;;;;6.82;2.08;;;;;;;;;;5057883;28;20072;-66
2022/07/14 02:21:59;;;;;;;5.60;1.95;;;;;;;;;;5064039;28;20064;-66
2022/07/14 02:24:25;;;;;;;5.40;2.00;;;;;;;;;;5066981;28;20397;-66
2022/07/14 02:26:51;;;;;;;4.38;1.42;;;;;;;;;;5063246;28;20040;-66
2022/07/14 02:29:18;;;;;;;6.70;1.52;;;;;;;;;;5058256;28;20048;-66
2022/07/14 02:31:44;;;;;;;2.65;1.05;;;;;;;;;;5061492;28;20501;-66
2022/07/14 02:34:11;;;;;;;5.07;1.27;;;;;;;;;;5067170;28;20041;-66
2022/07/14 02:36:38;;;;;;;3.13;1.40;;;;;;;;;;5058871;28;20509;-66
2022/07/14 02:39:04;;;;;;;3.95;1.75;;;;;;;;;;5055967;28;20375;-65
2022/07/14 02:41:30;;;;;;;4.75;1.92;;;;;;;;;;5058166;28;20040;-65
2022/07/14 02:43:56;;;;;;;6.70;1.80;;;;;;;;;;5067390;28;20115;-66
2022/07/14 02:46:22;;;;;;;3.70;1.60;;;;;;;;;;5065079;28;20386;-65
2022/07/14 02:48:48;;;;;;;3.10;1.33;;;;;;;;;;5066293;28;20036;-66
2022/07/14 02:51:15;;;;;;;3.10;1.50;;;;;;;;;;5059881;28;20040;-66
2022/07/14 02:53:41;;;;;;;2.90;1.30;;;;;;;;;;5062111;28;20120;-66
2022/07/14 02:56:07;;;;;;;4.50;1.70;;;;;;;;;;5068032;28;20115;-65
2022/07/14 02:58:34;;;;;;;4.63;1.40;;;;;;;;;;5064195;28;20411;-66
2022/07/14 03:01:00;;;;;;;3.75;1.58;;;;;;;;;;5061712;28;20052;-66
2022/07/14 03:03:27;;;;;;;2.95;1.42;;;;;;;;;;5062954;28;20032;-66
2022/07/14 03:05:53;;;;;;;1.85;1.55;;;;;;;;;;5070360;28;20044;-66
2022/07/14 03:08:19;;;;;;;4.43;1.60;;;;;;;;;;5073324;28;20048;-66
2022/07/14 03:10:45;;;;;;;2.28;1.40;;;;;;;;;;5062200;28;20483;-66
2022/07/14 03:13:11;;;;;;;5.03;1.45;;;;;;;;;;5064977;28;20406;-66
2022/07/14 03:15:37;;;;;;;6.47;1.60;;;;;;;;;;5069193;28;20043;-66
2022/07/14 03:18:03;;;;;;;2.90;1.40;;;;;;;;;;5070430;28;20123;-65
2022/07/14 03:20:30;;;;;;;2.95;1.30;;;;;;;;;;5065733;28;20040;-66
2022/07/14 03:22:56;;;;;;;4.32;1.45;;;;;;;;;;5070925;28;20028;-66
2022/07/14 03:25:22;;;;;;;3.33;1.35;;;;;;;;;;5064161;28;20045;-66
2022/07/14 03:27:48;;;;;;;3.47;1.48;;;;;;;;;;5064802;28;20572;-65
2022/07/14 03:30:14;;;;;;;2.20;1.20;;;;;;;;;;5064120;28;20041;-66
2022/07/14 03:32:40;;;;;;;5.32;1.73;;;;;;;;;;5058707;28;20041;-66
2022/07/14 03:35:07;;;;;;;2.72;1.30;;;;;;;;;;5068840;28;20085;-66
2022/07/14 03:37:36;;;;;;;3.33;1.40;;;;;;;;;;5070038;28;20036;-66
2022/07/14 03:40:04;;;;;;;5.22;1.40;;;;;;;;;;5063361;28;20045;-66
2022/07/14 03:42:30;;;;;;;2.42;1.40;;;;;;;;;;5063122;28;20060;-66
2022/07/14 03:44:56;;;;;;;2.03;1.13;;;;;;;;;;5063422;28;20028;-66
2022/07/14 03:47:22;;;;;;;3.75;1.60;;;;;;;;;;5063878;28;20119;-66
2022/07/14 03:49:49;;;;;;;2.28;1.50;;;;;;;;;;5070798;28;20110;-66
2022/07/14 03:52:15;;;;;;;2.80;1.30;;;;;;;;;;5068820;28;20123;-66
2022/07/14 03:54:44;;;;;;;2.05;1.23;;;;;;;;;;5059659;28;20548;-66
2022/07/14 03:57:11;;;;;;;5.25;1.60;;;;;;;;;;5065387;28;20119;-66
2022/07/14 03:59:40;;;;;;;4.07;1.70;;;;;;;;;;5056154;28;20082;-66
2022/07/14 04:02:07;;;;;;;4.32;1.50;;;;;;;;;;5062468;28;20036;-65
2022/07/14 04:04:33;;;;;;;3.83;1.33;;;;;;;;;;5055755;28;20032;-64
2022/07/14 04:06:59;;;;;;;4.28;1.10;;;;;;;;;;5064078;28;20166;-64
2022/07/14 04:09:25;;;;;;;1.95;1.17;;;;;;;;;;5061149;28;20048;-65
2022/07/14 04:11:51;;;;;;;3.13;1.10;;;;;;;;;;5059829;28;20092;-64
2022/07/14 04:14:17;;;;;;;1.20;1.10;;;;;;;;;;5062333;28;20064;-64
2022/07/14 04:16:44;;;;;;;2.95;1.15;;;;;;;;;;5063832;28;20436;-64
2022/07/14 04:19:10;;;;;;;1.88;1.30;;;;;;;;;;5068337;28;20040;-64
2022/07/14 04:21:36;;;;;;;2.42;1.30;;;;;;;;;;5063318;28;20036;-65
2022/07/14 04:24:03;;;;;;;1.95;1.60;;;;;;;;;;5063133;28;20040;-63
2022/07/14 04:26:30;;;;;;;2.20;1.25;;;;;;;;;;5060168;28;20034;-62
2022/07/14 04:28:56;;;;;;;2.67;1.48;;;;;;;;;;5068305;28;20083;-63
2022/07/14 04:31:22;;;;;;;2.17;1.50;;;;;;;;;;5067621;28;20565;-62
2022/07/14 04:33:48;;;;;;;3.83;1.73;;;;;;;;;;5059138;28;20041;-63
2022/07/14 04:36:14;;;;;;;3.45;1.83;;;;;;;;;;5063102;28;20032;-63
2022/07/14 04:38:41;;;;;;;3.60;1.92;;;;;;;;;;5060989;28;20120;-62
2022/07/14 04:41:07;;;;;;;3.72;2.17;;;;;;;;;;5072124;28;20062;-62
2022/07/14 04:43:33;;;;;;;4.75;2.05;;;;;;;;;;5068501;28;20398;-63
2022/07/14 04:46:00;;;;;;;4.95;2.67;;;;;;;;;;5064470;28;20037;-63
2022/07/14 04:48:26;;;;;;;5.07;2.67;;;;;;;;;;5070007;28;20452;-63
2022/07/14 04:53:37;;;;;;;7.47;3.00;;;;;;;;;;5062478;28;20056;-63
2022/07/14 04:56:03;;;;;;;7.55;3.45;;;;;;;;;;5072574;28;20068;-63
2022/07/14 04:58:30;;;;;;;7.80;3.53;;;;;;;;;;5067683;28;20040;-63
2022/07/14 05:00:59;;;;;;;8.85;3.90;;;;;;;;;;5061024;28;20037;-63
2022/07/14 05:03:25;;;;;;;6.70;3.70;;;;;;;;;;5066285;28;20094;-64
2022/07/14 05:05:51;;;;;;;9.48;3.65;;;;;;;;;;5063628;28;20036;-64
2022/07/14 05:08:17;;;;;;;7.57;3.35;;;;;;;;;;5131187;22;20500;-64
2022/07/14 05:10:43;;;;;;;8.25;4.05;;;;;;;;;;5125583;27;20044;-63
2022/07/14 05:13:09;;;;;;;10.27;3.63;;;;;;;;;;5130611;27;20035;-63
2022/07/14 05:15:35;;;;;;;10.80;3.92;;;;;;;;;;5124854;27;20038;-64
2022/07/14 05:18:01;;;;;;;15.57;4.05;;;;;;;;;;5108376;27;20094;-63
2022/07/14 05:20:27;;;;;;;7.57;3.80;;;;;;;;;;5105134;28;20516;-63
2022/07/14 05:22:53;;;;;;;8.45;3.40;;;;;;;;;;5101168;27;20453;-63
2022/07/14 05:25:19;;;;;;;11.30;3.75;;;;;;;;;;5109293;28;20101;-63
2022/07/14 05:27:45;;;;;;;8.35;3.40;;;;;;;;;;5097342;28;20039;-63
2022/07/14 05:30:12;;;;;;;7.70;3.40;;;;;;;;;;5108559;28;20115;-63
2022/07/14 05:32:39;;;;;;;12.15;4.50;;;;;;;;;;5112316;28;20046;-63
2022/07/14 05:35:05;;;;;;;10.20;3.70;;;;;;;;;;5110346;27;20085;-63
2022/07/14 05:37:32;;;;;;;10.90;3.55;;;;;;;;;;5106916;28;20036;-63
2022/07/14 05:39:58;;;;;;;9.23;3.30;;;;;;;;;;5091285;28;20180;-63
2022/07/14 05:42:24;;;;;;;11.57;3.63;;;;;;;;;;5109191;28;20487;-63
2022/07/14 05:44:50;;;;;;;10.80;3.20;;;;;;;;;;5103987;28;20066;-63
2022/07/14 05:47:16;;;;;;;10.15;3.33;;;;;;;;;;5102353;28;20035;-63
2022/07/14 05:49:43;;;;;;;9.35;3.13;;;;;;;;;;5115707;27;20043;-63
2022/07/14 05:52:11;;;;;;;7.25;2.83;;;;;;;;;;5124089;27;20123;-63
2022/07/14 05:54:37;;;;;;;8.90;2.72;;;;;;;;;;5106439;28;20042;-63
2022/07/14 05:57:03;;;;;;;11.20;3.10;;;;;;;;;;5111373;28;20164;-63
2022/07/14 05:59:29;;;;;;;9.35;2.90;;;;;;;;;;5106907;28;20491;-64
2022/07/14 06:01:55;;;;;;;9.52;3.20;;;;;;;;;;5115265;27;20485;-64
2022/07/14 06:04:21;;;;;;;5.68;1.85;;;;;;;;;;5097440;28;20047;-63
2022/07/14 06:06:48;;;;;;;7.85;2.80;;;;;;;;;;5101184;28;20169;-63
2022/07/14 06:09:15;;;;;;;7.00;2.85;;;;;;;;;;5108705;28;20039;-64
2022/07/14 06:11:44;;;;;;;7.57;2.70;;;;;;;;;;5097846;28;20126;-64
2022/07/14 06:14:10;;;;;;;7.80;2.85;;;;;;;;;;5103632;28;20046;-63
2022/07/14 06:16:36;;;;;;;8.05;3.03;;;;;;;;;;5105003;28;20035;-64
2022/07/14 06:19:03;;;;;;;6.93;2.80;;;;;;;;;;5110574;28;20489;-63
2022/07/14 06:21:29;;;;;;;9.70;3.17;;;;;;;;;;5104818;28;20039;-64
2022/07/14 06:23:55;;;;;;;9.20;2.90;;;;;;;;;;5105334;28;20051;-63
2022/07/14 06:26:22;;;;;;;6.40;2.47;;;;;;;;;;5104563;28;20492;-64
2022/07/14 06:28:48;;;;;;;9.77;2.95;;;;;;;;;;5113587;28;20058;-64
2022/07/14 06:31:15;;;;;;;6.25;2.30;;;;;;;;;;5115528;27;20035;-64
2022/07/14 06:33:41;;;;;;;11.40;2.42;;;;;;;;;;5115671;28;20040;-64
2022/07/14 06:36:08;;;;;;;10.95;2.85;;;;;;;;;;5106106;28;20032;-64
2022/07/14 06:38:34;;;;;;;9.13;2.72;;;;;;;;;;5106139;28;20047;-64
2022/07/14 06:41:00;;;;;;;6.40;2.35;;;;;;;;;;5098533;28;20039;-63
2022/07/14 06:43:26;;;;;;;8.15;2.08;;;;;;;;;;5114524;28;20078;-64
2022/07/14 06:45:52;;;;;;;10.07;2.10;;;;;;;;;;5110701;28;20032;-63
2022/07/14 06:48:18;;;;;;;10.15;2.13;;;;;;;;;;5106301;28;20044;-63
2022/07/14 06:50:45;;;;;;;9.95;2.25;;;;;;;;;;5116352;28;20076;-64
2022/07/14 06:53:11;;;;;;;7.88;1.77;;;;;;;;;;5102451;28;20043;-64
2022/07/14 06:55:37;;;;;;;7.30;2.25;;;;;;;;;;5097769;28;20047;-63
2022/07/14 06:58:03;;;;;;;6.57;1.58;;;;;;;;;;5098206;28;20497;-64
2022/07/14 07:00:30;;;;;;;10.45;1.85;;;;;;;;;;5098609;28;21636;-63
2022/07/14 07:02:56;;;;;;;8.77;1.75;;;;;;;;;;5112907;28;20032;-64
2022/07/14 07:08:07;;;;;;;2.88;0.90;;;;;;;;;;5114345;28;20039;-63
2022/07/14 07:10:40;;;;;;;4.15;1.27;;;;;;;;;;5108639;28;20077;-64
2022/07/14 07:13:06;;;;;;;8.68;1.35;;;;;;;;;;5111393;28;20040;-64
2022/07/14 07:15:32;;;;;;;9.88;1.60;;;;;;;;;;5111735;28;20114;-64
2022/07/14 07:17:59;;;;;;;5.68;1.20;;;;;;;;;;5101887;27;20088;-64
2022/07/14 07:20:25;;;;;;;4.93;1.35;;;;;;;;;;5117498;27;20441;-64
2022/07/14 07:22:51;;;;;;;6.80;1.30;;;;;;;;;;5114409;28;20036;-64
2022/07/14 07:25:17;;;;;;;4.72;1.35;;;;;;;;;;5104941;27;20043;-64
2022/07/14 07:27:49;;;;;;;9.43;1.20;;;;;;;;;;5106667;27;20364;-64
2022/07/14 07:30:16;;;;;;;4.80;1.20;;;;;;;;;;5109269;27;20100;-64
2022/07/14 07:32:41;;;;;;;7.30;1.58;;;;;;;;;;5108888;27;20032;-64
2022/07/14 07:35:08;;;;;;;8.02;1.20;;;;;;;;;;5108751;28;20028;-64
2022/07/14 07:37:34;;;;;;;2.53;0.82;;;;;;;;;;5113397;28;20027;-64
2022/07/14 07:40:00;;;;;;;6.55;1.40;;;;;;;;;;5104112;28;20043;-64
2022/07/14 07:42:26;;;;;;;5.15;1.02;;;;;;;;;;5105839;27;20036;-64
2022/07/14 07:44:54;;;;;;;4.30;1.27;;;;;;;;;;5107371;28;20032;-64
2022/07/14 07:47:20;;;;;;;6.55;1.10;;;;;;;;;;5099831;28;20036;-64
2022/07/14 07:49:46;;;;;;;5.45;0.88;;;;;;;;;;5094135;28;20406;-64
2022/07/14 07:52:12;;;;;;;7.97;1.45;;;;;;;;;;5109755;28;20032;-64
2022/07/14 07:54:38;;;;;;;7.97;1.20;;;;;;;;;;5099515;28;20048;-64
2022/07/14 07:57:05;;;;;;;8.32;1.30;;;;;;;;;;5108643;27;20036;-65
2022/07/14 07:59:31;;;;;;;6.30;1.20;;;;;;;;;;5107827;28;20039;-64
2022/07/14 08:01:57;;;;;;;7.70;1.20;;;;;;;;;;5095633;28;20063;-64
2022/07/14 08:04:23;;;;;;;5.53;1.08;;;;;;;;;;5092798;28;20129;-65
2022/07/14 08:06:49;;;;;;;5.80;0.93;;;;;;;;;;5109545;27;20046;-65
2022/07/14 08:09:15;;;;;;;5.70;1.00;;;;;;;;;;5098891;27;20043;-64
2022/07/14 08:11:42;;;;;;;8.32;1.20;;;;;;;;;;5124114;27;20054;-65
2022/07/14 08:14:47;;;;;;;2.97;0.80;;;;;;;;;;5124926;27;20031;-65
2022/07/14 08:16:56;;;;;;;7.65;1.10;;;;;;;;;;5114672;27;20042;-65
2022/07/14 08:19:22;;;;;;;3.80;0.82;;;;;;;;;;5118089;27;20043;-64
2022/07/14 08:21:48;;;;;;;6.60;1.00;;;;;;;;;;5114024;27;20476;-65
2022/07/14 08:24:14;;;;;;;3.05;0.98;;;;;;;;;;5108488;28;20118;-64
2022/07/14 08:26:41;;;;;;;3.30;0.82;;;;;;;;;;5110767;27;20036;-65
2022/07/14 08:29:07;;;;;;;5.53;1.33;;;;;;;;;;5118919;27;20118;-65
2022/07/14 08:31:33;;;;;;;3.80;1.00;;;;;;;;;;5107718;28;20386;-64
2022/07/14 08:33:59;;;;;;;3.50;0.90;;;;;;;;;;5110894;27;20043;-65
2022/07/14 08:36:26;;;;;;;3.92;0.70;;;;;;;;;;5108244;27;20118;-65
2022/07/14 08:38:52;;;;;;;2.80;0.70;;;;;;;;;;5110329;27;20043;-65
2022/07/14 08:41:18;;;;;;;4.22;0.90;;;;;;;;;;5106844;27;20081;-64
2022/07/14 08:43:45;;;;;;;5.80;1.15;;;;;;;;;;5111235;27;20032;-64
2022/07/14 08:46:11;;;;;;;5.70;0.70;;;;;;;;;;5097614;27;20032;-65
2022/07/14 08:48:37;;;;;;;13.75;1.35;;;;;;;;;;5110689;27;20035;-65
2022/07/14 08:51:04;;;;;;;3.67;1.33;;;;;;;;;;5099300;28;20031;-65
2022/07/14 08:53:30;;;;;;;2.80;0.90;;;;;;;;;;5104798;27;20047;-65
2022/07/14 08:55:58;;;;;;;5.47;0.80;;;;;;;;;;5099220;28;20043;-65
2022/07/14 08:58:24;;;;;;;4.28;0.95;;;;;;;;;;5125423;27;20556;-65
2022/07/14 09:00:50;;;;;;;3.70;0.90;;;;;;;;;;5103197;27;20064;-65
2022/07/14 09:03:17;;;;;;;3.75;0.75;;;;;;;;;;5111165;27;20089;-66
2022/07/14 09:05:43;;;;;;;4.25;0.80;;;;;;;;;;5104146;28;20032;-64
2022/07/14 09:08:11;;;;;;;4.50;0.93;;;;;;;;;;5103633;27;20040;-65
2022/07/14 09:10:38;;;;;;;1.80;0.60;;;;;;;;;;5101562;28;20035;-65
2022/07/14 09:13:10;;;;;;;3.22;1.00;;;;;;;;;;5104072;28;20106;-65
2022/07/14 09:15:46;;;;;;;4.32;0.82;;;;;;;;;;5112942;27;20434;-65
2022/07/14 09:18:19;;;;;;;5.75;0.95;;;;;;;;;;5114152;27;20036;-65
2022/07/14 09:20:45;;;;;;;3.80;0.80;;;;;;;;;;5109074;27;20038;-65
2022/07/14 09:23:11;;;;;;;2.47;0.68;;;;;;;;;;5103675;27;20085;-65
2022/07/14 09:25:37;;;;;;;3.17;0.80;;;;;;;;;;5109428;27;20039;-65
2022/07/14 09:28:04;;;;;;;4.75;1.00;;;;;;;;;;5117022;27;20062;-64
2022/07/14 09:30:33;;;;;;;3.92;0.90;;;;;;;;;;5101522;27;20039;-64
2022/07/14 09:33:02;;;;;;;4.38;0.75;;;;;;;;;;5105673;28;20042;-65
2022/07/14 09:35:34;;;;;;;5.43;1.30;;;;;;;;;;5098752;28;20115;-65
2022/07/14 09:38:22;;;;;;;6.47;1.52;;;;;;;;;;5101072;28;20031;-64
2022/07/14 09:40:48;;;;;;;3.42;0.75;;;;;;;;;;5098724;28;20036;-64
2022/07/14 09:43:15;;;;;;;6.05;1.00;;;;;;;;;;5109169;28;20450;-64
2022/07/14 09:45:45;;;;;;;7.25;1.42;;;;;;;;;;5092299;28;20051;-65
2022/07/14 09:48:13;;;;;;;3.10;0.68;;;;;;;;;;5097098;27;20436;-65
2022/07/14 09:50:54;;;;;;;2.97;0.77;;;;;;;;;;5112409;27;20043;-64
2022/07/14 09:53:23;;;;;;;4.38;0.70;;;;;;;;;;5096964;28;20121;-65
2022/07/14 09:55:51;;;;;;;3.60;0.90;;;;;;;;;;5098644;28;20112;-65
2022/07/14 09:58:18;;;;;;;3.67;0.55;;;;;;;;;;5105344;28;20097;-65
2022/07/14 10:00:53;;;;;;;2.83;0.65;;;;;;;;;;5109219;27;20036;-64
2022/07/14 10:03:20;;;;;;;3.25;0.80;;;;;;;;;;5106326;28;20078;-64
2022/07/14 10:05:46;;;;;;;3.67;0.82;;;;;;;;;;5114336;27;20040;-64
2022/07/14 10:08:13;;;;;;;2.65;0.85;;;;;;;;;;5107473;28;20089;-64
2022/07/14 10:10:39;;;;;;;1.85;0.68;;;;;;;;;;5096795;28;20070;-64
2022/07/14 10:13:05;;;;;;;2.88;0.60;;;;;;;;;;5102326;28;20031;-64
2022/07/14 10:15:31;;;;;;;2.90;0.60;;;;;;;;;;5123229;27;20041;-64
2022/07/14 10:18:00;;;;;;;2.63;0.73;;;;;;;;;;5106451;28;20074;-64
2022/07/14 10:20:26;;;;;;;2.70;0.60;;;;;;;;;;5099677;28;20401;-64
2022/07/14 10:22:54;;;;;;;4.90;1.02;;;;;;;;;;5107603;28;20032;-64
2022/07/14 10:25:20;;;;;;;2.80;0.60;;;;;;;;;;5102932;28;20043;-64
2022/07/14 10:27:47;;;;;;;2.88;0.57;;;;;;;;;;5104109;28;20046;-64
2022/07/14 10:30:13;;;;;;;4.38;0.77;;;;;;;;;;5110753;28;20457;-64
2022/07/14 10:32:51;;;;;;;2.75;0.60;;;;;;;;;;5108065;28;20100;-64
2022/07/14 10:35:49;;;;;;;3.47;0.70;;;;;;;;;;5106302;28;20499;-64
2022/07/14 10:38:31;;;;;;;2.30;0.60;;;;;;;;;;5072047;28;20052;-64
2022/07/14 10:41:05;;;;;;;2.40;0.68;;;;;;;;;;5109453;28;20110;-64
2022/07/14 10:43:51;;;;;;;2.95;0.68;;;;;;;;;;5105223;28;20035;-64
2022/07/14 10:46:33;;;;;;;2.70;0.77;;;;;;;;;;5108204;28;20096;-64
2022/07/14 10:48:59;;;;;;;1.20;0.50;;;;;;;;;;5094698;28;20486;-64
2022/07/14 10:51:28;;;;;;;2.88;0.60;;;;;;;;;;5099418;28;20070;-64
2022/07/14 10:54:14;;;;;;;2.38;0.80;;;;;;;;;;5104823;28;20039;-64
2022/07/14 10:56:41;;;;;;;2.53;0.70;;;;;;;;;;5101801;28;20039;-64
2022/07/14 10:59:30;;;;;;;3.75;0.90;;;;;;;;;;5101319;28;20381;-64
2022/07/14 11:02:12;;;;;;;3.88;0.77;;;;;;;;;;5094164;28;20440;-64
2022/07/14 11:05:03;;;;;;;1.40;0.70;;;;;;;;;;5099912;28;20061;-64
2022/07/14 11:07:29;;;;;;;;;;;;;;;;;;5096261;28;20040;-64
2022/07/14 11:12:28;;;;;;;3.22;0.80;;;;;;;;;;5065153;28;20037;-65
2022/07/14 11:14:54;;;;;;;4.50;0.77;;;;;;;;;;5055355;28;20040;-65
2022/07/14 11:17:37;;;;;;;3.28;0.63;;;;;;;;;;5066134;28;20536;-64
2022/07/14 11:20:05;;;;;;;3.72;0.60;;;;;;;;;;5056145;28;20048;-65
2022/07/14 11:22:31;;;;;;;2.90;0.50;;;;;;;;;;5071413;28;20439;-65
2022/07/14 11:24:58;;;;;;;4.57;0.88;;;;;;;;;;5073592;28;20406;-65
2022/07/14 11:27:30;;;;;;;3.30;0.63;;;;;;;;;;5070308;28;20033;-65
2022/07/14 11:30:35;;;;;;;3.05;0.68;;;;;;;;;;5072966;28;20575;-64
2022/07/14 11:33:01;;;;;;;3.30;0.80;;;;;;;;;;4998800;28;20042;-65
2022/07/14 11:38:25;;;;;;;2.08;0.60;;;;;;;;;;5051739;28;20048;-65
2022/07/14 11:40:52;;;;;;;4.57;0.93;;;;;;;;;;5051951;28;20039;-65
2022/07/14 11:43:30;;;;;;;4.28;0.60;;;;;;;;;;5064601;28;20046;-65
2022/07/14 11:45:57;;;;;;;1.48;0.40;;;;;;;;;;5073423;28;20494;-65
2022/07/14 11:48:28;;;;;;;2.67;0.75;;;;;;;;;;5070827;28;20139;-65
2022/07/14 11:51:01;;;;;;;1.98;0.60;;;;;;;;;;5067879;28;20469;-65
2022/07/14 11:53:28;;;;;;;4.80;0.85;;;;;;;;;;5069651;28;20045;-65
2022/07/14 11:55:55;;;;;;;2.75;0.65;;;;;;;;;;5066613;28;20072;-65
2022/07/14 11:58:24;;;;;;;2.10;0.93;;;;;;;;;;5065075;28;20376;-65
2022/07/14 12:00:57;;;;;;;3.42;0.55;;;;;;;;;;5073493;28;20037;-65
2022/07/14 12:03:23;;;;;;;2.25;0.70;;;;;;;;;;5072647;28;20379;-65
2022/07/14 12:05:53;;;;;;;1.50;0.50;;;;;;;;;;5069677;28;20048;-65
2022/07/14 12:08:27;;;;;;;1.60;0.70;;;;;;;;;;5065576;28;20105;-65
2022/07/14 12:10:54;;;;;;;7.43;0.80;;;;;;;;;;5054660;28;20051;-65
2022/07/14 12:13:20;;;;;;;3.75;0.65;;;;;;;;;;5073572;28;20051;-65
2022/07/14 12:15:47;;;;;;;1.70;0.70;;;;;;;;;;5072104;28;20044;-65
2022/07/14 12:18:13;;;;;;;3.70;0.80;;;;;;;;;;5064784;28;20056;-65
2022/07/14 12:20:41;;;;;;;4.07;0.60;;;;;;;;;;5068942;28;20036;-65
2022/07/14 12:23:07;;;;;;;1.98;0.57;;;;;;;;;;5068826;28;20033;-65
2022/07/14 12:25:35;;;;;;;6.45;0.77;;;;;;;;;;5072538;28;20032;-65
2022/07/14 12:28:02;;;;;;;2.35;0.60;;;;;;;;;;5073707;28;20068;-65
2022/07/14 12:30:47;;;;;;;2.53;0.60;;;;;;;;;;5071493;28;20101;-65
2022/07/14 12:33:14;;;;;;;1.92;0.63;;;;;;;;;;5069184;28;20086;-65
2022/07/14 12:35:42;;;;;;;1.58;0.60;;;;;;;;;;5069782;28;20046;-65
2022/07/14 12:38:09;;;;;;;2.38;0.63;;;;;;;;;;5072310;28;20086;-65
2022/07/14 12:40:35;;;;;;;3.38;0.88;;;;;;;;;;5061927;28;20033;-65
2022/07/14 12:43:03;;;;;;;1.73;0.65;;;;;;;;;;5071044;28;20032;-66
2022/07/14 12:45:29;;;;;;;2.53;0.70;;;;;;;;;;5048990;28;20547;-65
2022/07/14 12:47:56;;;;;;;1.65;0.70;;;;;;;;;;5071433;28;20728;-65
2022/07/14 12:50:26;;;;;;;1.08;0.50;;;;;;;;;;5061624;28;20093;-65
2022/07/14 12:52:53;;;;;;;2.75;0.50;;;;;;;;;;5068113;28;20039;-65
2022/07/14 12:55:32;;;;;;;2.33;0.80;;;;;;;;;;5069819;28;20405;-65
2022/07/14 12:58:07;;;;;;;2.03;0.70;;;;;;;;;;5069843;28;20044;-65
2022/07/14 13:00:35;;;;;;;2.00;0.70;;;;;;;;;;5062568;28;20119;-65
2022/07/14 13:03:11;;;;;;;2.85;0.85;;;;;;;;;;5051750;28;20051;-65
2022/07/14 13:05:56;;;;;;;2.97;0.75;;;;;;;;;;5065609;28;20510;-65
2022/07/14 13:08:28;;;;;;;2.78;0.60;;;;;;;;;;5063420;28;20056;-66
2022/07/14 13:10:58;;;;;;;2.20;0.80;;;;;;;;;;5067620;28;20052;-66
2022/07/14 13:13:37;;;;;;;1.58;0.70;;;;;;;;;;5069233;28;20040;-65
2022/07/14 13:16:21;;;;;;;2.47;0.75;;;;;;;;;;5070415;28;20126;-65
2022/07/14 13:19:03;;;;;;;3.08;0.80;;;;;;;;;;5064827;28;20406;-66
2022/07/14 13:21:47;;;;;;;3.72;0.70;;;;;;;;;;5063503;28;20164;-65
2022/07/14 13:24:13;;;;;;;3.13;0.85;;;;;;;;;;5069845;28;20076;-66
2022/07/14 13:26:39;;;;;;;3.80;0.70;;;;;;;;;;5061180;28;20075;-65
2022/07/14 13:29:05;;;;;;;3.88;0.75;;;;;;;;;;5070903;28;20036;-66
2022/07/14 13:31:31;;;;;;;3.55;0.75;;;;;;;;;;5067807;28;20090;-65
2022/07/14 13:34:01;;;;;;;4.03;0.88;;;;;;;;;;5062576;28;20460;-65
2022/07/14 13:36:28;;;;;;;6.00;1.92;;;;;;;;;;5069500;28;20036;-64
2022/07/14 13:38:54;;;;;;;3.65;0.90;;;;;;;;;;5066191;28;20502;-66
2022/07/14 13:41:20;;;;;;;3.90;1.10;;;;;;;;;;5062614;28;20090;-65
2022/07/14 13:43:47;;;;;;;3.80;1.02;;;;;;;;;;5067069;28;20037;-65
2022/07/14 13:46:14;;;;;;;2.50;0.88;;;;;;;;;;5070908;28;20132;-65
2022/07/14 13:48:41;;;;;;;3.05;0.70;;;;;;;;;;5066729;28;20072;-65
2022/07/14 13:53:52;;;;;;;3.17;0.80;;;;;;;;;;5068126;28;20049;-65
2022/07/14 13:56:18;;;;;;;2.75;0.90;;;;;;;;;;5070436;28;20041;-65
2022/07/14 13:58:44;;;;;;;2.38;0.90;;;;;;;;;;5070389;28;20072;-65
2022/07/14 14:01:10;;;;;;;4.78;0.90;;;;;;;;;;5061150;28;20400;-65
2022/07/14 14:03:37;;;;;;;4.68;0.98;;;;;;;;;;5065975;28;20478;-66
2022/07/14 14:06:05;;;;;;;3.70;0.98;;;;;;;;;;5069741;28;20040;-65
2022/07/14 14:08:32;;;;;;;3.05;1.02;;;;;;;;;;5066593;28;20036;-66
2022/07/14 14:10:59;;;;;;;1.70;0.70;;;;;;;;;;5067534;28;20070;-66
2022/07/14 14:13:29;;;;;;;3.25;0.98;;;;;;;;;;5069129;28;20044;-66
2022/07/14 14:15:56;;;;;;;4.47;0.75;;;;;;;;;;5060135;28;20071;-66
2022/07/14 14:18:22;;;;;;;2.47;0.70;;;;;;;;;;5069685;28;20048;-65
2022/07/14 14:20:48;;;;;;;4.82;0.93;;;;;;;;;;5066461;28;20097;-66
2022/07/14 14:23:14;;;;;;;2.53;0.77;;;;;;;;;;5069418;28;20040;-66
2022/07/14 14:25:41;;;;;;;2.17;0.90;;;;;;;;;;5063737;28;20036;-66
2022/07/14 14:28:07;;;;;;;1.88;0.82;;;;;;;;;;5067691;28;20046;-65
2022/07/14 14:30:34;;;;;;;3.28;0.68;;;;;;;;;;5066206;28;20040;-65
2022/07/14 14:33:01;;;;;;;2.13;0.80;;;;;;;;;;5075387;28;20036;-66
2022/07/14 14:35:27;;;;;;;2.47;0.90;;;;;;;;;;5071101;28;20514;-65
2022/07/14 14:37:53;;;;;;;3.88;0.85;;;;;;;;;;5068190;28;20036;-65
2022/07/14 14:40:19;;;;;;;3.15;0.95;;;;;;;;;;5069382;28;20090;-65
2022/07/14 14:42:45;;;;;;;2.22;0.75;;;;;;;;;;5065123;28;20079;-65
2022/07/14 14:45:12;;;;;;;2.85;0.95;;;;;;;;;;5067058;28;21935;-65
2022/07/14 14:47:38;;;;;;;4.10;1.05;;;;;;;;;;5062247;28;20037;-65
2022/07/14 14:50:04;;;;;;;2.60;0.70;;;;;;;;;;5064427;28;20045;-65
2022/07/14 14:52:30;;;;;;;2.60;0.70;;;;;;;;;;5063300;28;20423;-66
2022/07/14 14:54:56;;;;;;;2.08;0.70;;;;;;;;;;5065035;28;20045;-65
2022/07/14 14:57:23;;;;;;;3.38;0.90;;;;;;;;;;5067268;28;20059;-65
2022/07/14 14:59:49;;;;;;;4.10;0.70;;;;;;;;;;5068190;28;20041;-65